sensor_id;sensor_type;location;lat;lon;timestamp;P1;durP1;ratioP1;P2;durP2;ratioP2
35128;SDS011;21301;43.626;10.580;2023-05-29T00:00:20;13.85;;;8.63;;
35128;SDS011;21301;43.626;10.580;2023-05-29T00:02:46;15.88;;;7.82;;
35128;SDS011;21301;43.626;10.580;2023-05-29T00:05:13;13.30;;;8.45;;
35128;SDS011;21301;43.626;10.580;2023-05-29T00:07:39;12.00;;;8.10;;
35128;SDS011;21301;43.626;10.580;2023-05-29T00:10:07;14.48;;;8.40;;
35128;SDS011;21301;43.626;10.580;2023-05-29T00:12:33;16.35;;;7.45;;
35128;SDS011;21301;43.626;10.580;2023-05-29T00:14:59;11.70;;;7.75;;
35128;SDS011;21301;43.626;10.580;2023-05-29T00:17:25;11.80;;;8.05;;
35128;SDS011;21301;43.626;10.580;2023-05-29T00:19:51;17.80;;;7.95;;
35128;SDS011;21301;43.626;10.580;2023-05-29T00:22:17;15.02;;;8.85;;
35128;SDS011;21301;43.626;10.580;2023-05-29T00:24:44;16.55;;;8.57;;
35128;SDS011;21301;43.626;10.580;2023-05-29T00:27:10;14.85;;;9.10;;
35128;SDS011;21301;43.626;10.580;2023-05-29T00:29:36;15.93;;;9.10;;
35128;SDS011;21301;43.626;10.580;2023-05-29T00:32:06;12.15;;;8.77;;
35128;SDS011;21301;43.626;10.580;2023-05-29T00:34:32;14.13;;;8.07;;
35128;SDS011;21301;43.626;10.580;2023-05-29T00:36:58;14.18;;;8.45;;
35128;SDS011;21301;43.626;10.580;2023-05-29T00:39:24;15.05;;;8.55;;
35128;SDS011;21301;43.626;10.580;2023-05-29T00:41:50;11.55;;;7.75;;
35128;SDS011;21301;43.626;10.580;2023-05-29T00:44:19;11.98;;;7.60;;
35128;SDS011;21301;43.626;10.580;2023-05-29T00:46:47;11.75;;;7.50;;
35128;SDS011;21301;43.626;10.580;2023-05-29T00:49:14;11.95;;;6.97;;
35128;SDS011;21301;43.626;10.580;2023-05-29T00:51:42;15.90;;;8.00;;
35128;SDS011;21301;43.626;10.580;2023-05-29T00:54:10;12.85;;;8.25;;
35128;SDS011;21301;43.626;10.580;2023-05-29T00:56:41;13.15;;;7.93;;
35128;SDS011;21301;43.626;10.580;2023-05-29T00:59:10;10.73;;;6.65;;
35128;SDS011;21301;43.626;10.580;2023-05-29T01:01:37;16.05;;;8.30;;
35128;SDS011;21301;43.626;10.580;2023-05-29T01:04:05;11.45;;;7.63;;
35128;SDS011;21301;43.626;10.580;2023-05-29T01:06:32;11.07;;;7.97;;
35128;SDS011;21301;43.626;10.580;2023-05-29T01:08:58;12.02;;;8.20;;
35128;SDS011;21301;43.626;10.580;2023-05-29T01:14:00;10.73;;;6.68;;
35128;SDS011;21301;43.626;10.580;2023-05-29T01:16:35;12.98;;;8.23;;
35128;SDS011;21301;43.626;10.580;2023-05-29T01:22:24;11.00;;;6.85;;
35128;SDS011;21301;43.626;10.580;2023-05-29T01:27:44;12.88;;;7.18;;
35128;SDS011;21301;43.626;10.580;2023-05-29T01:30:14;11.93;;;7.88;;
35128;SDS011;21301;43.626;10.580;2023-05-29T01:32:41;11.32;;;7.20;;
35128;SDS011;21301;43.626;10.580;2023-05-29T01:35:08;11.60;;;7.72;;
35128;SDS011;21301;43.626;10.580;2023-05-29T01:37:34;11.77;;;7.28;;
35128;SDS011;21301;43.626;10.580;2023-05-29T01:40:00;13.45;;;7.65;;
35128;SDS011;21301;43.626;10.580;2023-05-29T01:42:28;16.13;;;7.90;;
35128;SDS011;21301;43.626;10.580;2023-05-29T01:44:56;12.38;;;7.63;;
35128;SDS011;21301;43.626;10.580;2023-05-29T01:47:22;16.83;;;8.00;;
35128;SDS011;21301;43.626;10.580;2023-05-29T01:49:49;11.40;;;8.20;;
35128;SDS011;21301;43.626;10.580;2023-05-29T01:52:17;13.73;;;7.78;;
35128;SDS011;21301;43.626;10.580;2023-05-29T01:54:43;14.18;;;7.95;;
35128;SDS011;21301;43.626;10.580;2023-05-29T01:57:10;12.98;;;8.05;;
35128;SDS011;21301;43.626;10.580;2023-05-29T01:59:37;12.55;;;8.05;;
35128;SDS011;21301;43.626;10.580;2023-05-29T02:02:10;13.23;;;7.35;;
35128;SDS011;21301;43.626;10.580;2023-05-29T02:04:37;14.98;;;7.65;;
35128;SDS011;21301;43.626;10.580;2023-05-29T02:07:03;9.93;;;6.75;;
35128;SDS011;21301;43.626;10.580;2023-05-29T02:09:30;12.20;;;8.45;;
35128;SDS011;21301;43.626;10.580;2023-05-29T02:11:56;13.65;;;8.52;;
35128;SDS011;21301;43.626;10.580;2023-05-29T02:14:21;13.70;;;8.13;;
35128;SDS011;21301;43.626;10.580;2023-05-29T02:16:50;12.45;;;7.75;;
35128;SDS011;21301;43.626;10.580;2023-05-29T02:19:17;11.88;;;8.35;;
35128;SDS011;21301;43.626;10.580;2023-05-29T02:21:43;15.48;;;8.80;;
35128;SDS011;21301;43.626;10.580;2023-05-29T02:24:09;17.20;;;8.80;;
35128;SDS011;21301;43.626;10.580;2023-05-29T02:26:35;15.93;;;8.75;;
35128;SDS011;21301;43.626;10.580;2023-05-29T02:29:03;12.38;;;8.18;;
35128;SDS011;21301;43.626;10.580;2023-05-29T02:31:32;12.18;;;8.02;;
35128;SDS011;21301;43.626;10.580;2023-05-29T02:33:58;11.43;;;8.07;;
35128;SDS011;21301;43.626;10.580;2023-05-29T02:36:23;13.25;;;8.15;;
35128;SDS011;21301;43.626;10.580;2023-05-29T02:38:49;12.82;;;8.38;;
35128;SDS011;21301;43.626;10.580;2023-05-29T02:41:15;15.27;;;8.95;;
35128;SDS011;21301;43.626;10.580;2023-05-29T02:43:42;13.60;;;8.68;;
35128;SDS011;21301;43.626;10.580;2023-05-29T02:46:08;14.20;;;7.72;;
35128;SDS011;21301;43.626;10.580;2023-05-29T02:48:33;12.75;;;8.57;;
35128;SDS011;21301;43.626;10.580;2023-05-29T02:50:59;12.77;;;8.05;;
35128;SDS011;21301;43.626;10.580;2023-05-29T02:53:25;12.00;;;8.07;;
35128;SDS011;21301;43.626;10.580;2023-05-29T02:55:51;12.18;;;8.60;;
35128;SDS011;21301;43.626;10.580;2023-05-29T02:58:16;13.95;;;7.88;;
35128;SDS011;21301;43.626;10.580;2023-05-29T03:00:42;14.48;;;8.38;;
35128;SDS011;21301;43.626;10.580;2023-05-29T03:03:08;13.38;;;7.70;;
35128;SDS011;21301;43.626;10.580;2023-05-29T03:05:37;12.95;;;7.72;;
35128;SDS011;21301;43.626;10.580;2023-05-29T03:08:03;12.68;;;8.73;;
35128;SDS011;21301;43.626;10.580;2023-05-29T03:10:29;14.63;;;8.57;;
35128;SDS011;21301;43.626;10.580;2023-05-29T03:12:55;15.43;;;8.63;;
35128;SDS011;21301;43.626;10.580;2023-05-29T03:15:20;18.00;;;8.32;;
35128;SDS011;21301;43.626;10.580;2023-05-29T03:17:47;10.10;;;7.07;;
35128;SDS011;21301;43.626;10.580;2023-05-29T03:20:16;12.32;;;7.82;;
35128;SDS011;21301;43.626;10.580;2023-05-29T03:22:42;12.27;;;8.07;;
35128;SDS011;21301;43.626;10.580;2023-05-29T03:25:09;10.40;;;7.13;;
35128;SDS011;21301;43.626;10.580;2023-05-29T03:27:34;11.77;;;7.38;;
35128;SDS011;21301;43.626;10.580;2023-05-29T03:30:07;12.27;;;7.72;;
35128;SDS011;21301;43.626;10.580;2023-05-29T03:32:35;14.65;;;8.35;;
35128;SDS011;21301;43.626;10.580;2023-05-29T03:35:00;12.57;;;7.72;;
35128;SDS011;21301;43.626;10.580;2023-05-29T03:37:29;10.80;;;7.07;;
35128;SDS011;21301;43.626;10.580;2023-05-29T03:39:56;12.45;;;7.72;;
35128;SDS011;21301;43.626;10.580;2023-05-29T03:42:22;11.63;;;7.70;;
35128;SDS011;21301;43.626;10.580;2023-05-29T03:44:50;14.07;;;7.95;;
35128;SDS011;21301;43.626;10.580;2023-05-29T03:47:15;11.43;;;7.60;;
35128;SDS011;21301;43.626;10.580;2023-05-29T03:49:41;11.65;;;7.45;;
35128;SDS011;21301;43.626;10.580;2023-05-29T03:52:07;16.48;;;8.70;;
35128;SDS011;21301;43.626;10.580;2023-05-29T03:54:33;11.10;;;7.45;;
35128;SDS011;21301;43.626;10.580;2023-05-29T03:57:00;11.65;;;7.38;;
35128;SDS011;21301;43.626;10.580;2023-05-29T03:59:27;15.27;;;7.50;;
35128;SDS011;21301;43.626;10.580;2023-05-29T04:01:52;11.45;;;7.68;;
35128;SDS011;21301;43.626;10.580;2023-05-29T04:04:19;12.35;;;7.45;;
35128;SDS011;21301;43.626;10.580;2023-05-29T04:06:45;10.15;;;7.85;;
35128;SDS011;21301;43.626;10.580;2023-05-29T04:09:11;12.95;;;8.27;;
35128;SDS011;21301;43.626;10.580;2023-05-29T04:11:36;14.93;;;7.82;;
35128;SDS011;21301;43.626;10.580;2023-05-29T04:14:03;11.82;;;7.40;;
35128;SDS011;21301;43.626;10.580;2023-05-29T04:16:29;11.63;;;7.65;;
35128;SDS011;21301;43.626;10.580;2023-05-29T04:18:55;11.80;;;7.85;;
35128;SDS011;21301;43.626;10.580;2023-05-29T04:21:24;11.63;;;7.55;;
35128;SDS011;21301;43.626;10.580;2023-05-29T04:23:52;14.77;;;7.55;;
35128;SDS011;21301;43.626;10.580;2023-05-29T04:26:20;12.18;;;7.70;;
35128;SDS011;21301;43.626;10.580;2023-05-29T04:28:50;11.52;;;7.70;;
35128;SDS011;21301;43.626;10.580;2023-05-29T04:31:26;10.68;;;7.78;;
35128;SDS011;21301;43.626;10.580;2023-05-29T04:33:53;10.95;;;7.07;;
35128;SDS011;21301;43.626;10.580;2023-05-29T04:36:23;11.63;;;7.80;;
35128;SDS011;21301;43.626;10.580;2023-05-29T04:38:55;11.05;;;7.40;;
35128;SDS011;21301;43.626;10.580;2023-05-29T04:41:22;11.18;;;6.65;;
35128;SDS011;21301;43.626;10.580;2023-05-29T04:43:55;13.55;;;7.60;;
35128;SDS011;21301;43.626;10.580;2023-05-29T04:46:24;11.77;;;7.78;;
35128;SDS011;21301;43.626;10.580;2023-05-29T04:48:50;10.95;;;7.25;;
35128;SDS011;21301;43.626;10.580;2023-05-29T04:51:19;10.60;;;7.25;;
35128;SDS011;21301;43.626;10.580;2023-05-29T04:53:47;11.63;;;8.23;;
35128;SDS011;21301;43.626;10.580;2023-05-29T04:56:14;13.63;;;8.02;;
35128;SDS011;21301;43.626;10.580;2023-05-29T04:58:41;12.38;;;7.57;;
35128;SDS011;21301;43.626;10.580;2023-05-29T05:01:07;16.30;;;8.23;;
35128;SDS011;21301;43.626;10.580;2023-05-29T05:03:36;17.30;;;9.68;;
35128;SDS011;21301;43.626;10.580;2023-05-29T05:06:02;16.55;;;9.65;;
35128;SDS011;21301;43.626;10.580;2023-05-29T05:08:30;15.43;;;10.02;;
35128;SDS011;21301;43.626;10.580;2023-05-29T05:10:59;15.73;;;9.23;;
35128;SDS011;21301;43.626;10.580;2023-05-29T05:13:25;12.30;;;8.38;;
35128;SDS011;21301;43.626;10.580;2023-05-29T05:15:52;12.75;;;7.38;;
35128;SDS011;21301;43.626;10.580;2023-05-29T05:18:18;14.18;;;8.68;;
35128;SDS011;21301;43.626;10.580;2023-05-29T05:20:52;13.95;;;8.13;;
35128;SDS011;21301;43.626;10.580;2023-05-29T05:23:17;16.77;;;9.88;;
35128;SDS011;21301;43.626;10.580;2023-05-29T05:25:43;14.98;;;8.57;;
35128;SDS011;21301;43.626;10.580;2023-05-29T05:28:09;13.45;;;10.00;;
35128;SDS011;21301;43.626;10.580;2023-05-29T05:30:35;14.27;;;8.65;;
35128;SDS011;21301;43.626;10.580;2023-05-29T05:33:01;13.77;;;8.57;;
35128;SDS011;21301;43.626;10.580;2023-05-29T05:35:27;15.32;;;9.88;;
35128;SDS011;21301;43.626;10.580;2023-05-29T05:37:53;14.20;;;9.68;;
35128;SDS011;21301;43.626;10.580;2023-05-29T05:40:19;15.48;;;9.43;;
35128;SDS011;21301;43.626;10.580;2023-05-29T05:42:55;14.10;;;9.45;;
35128;SDS011;21301;43.626;10.580;2023-05-29T05:45:32;15.35;;;9.20;;
35128;SDS011;21301;43.626;10.580;2023-05-29T05:47:58;14.88;;;9.73;;
35128;SDS011;21301;43.626;10.580;2023-05-29T05:50:26;13.60;;;9.15;;
35128;SDS011;21301;43.626;10.580;2023-05-29T05:52:51;17.33;;;10.13;;
35128;SDS011;21301;43.626;10.580;2023-05-29T05:55:17;17.17;;;10.15;;
35128;SDS011;21301;43.626;10.580;2023-05-29T05:57:43;16.10;;;11.02;;
35128;SDS011;21301;43.626;10.580;2023-05-29T06:00:10;12.57;;;9.15;;
35128;SDS011;21301;43.626;10.580;2023-05-29T06:02:42;15.33;;;7.53;;
35128;SDS011;21301;43.626;10.580;2023-05-29T06:05:12;10.25;;;7.22;;
35128;SDS011;21301;43.626;10.580;2023-05-29T06:07:40;12.73;;;7.80;;
35128;SDS011;21301;43.626;10.580;2023-05-29T06:10:07;20.70;;;10.60;;
35128;SDS011;21301;43.626;10.580;2023-05-29T06:12:33;13.48;;;8.38;;
35128;SDS011;21301;43.626;10.580;2023-05-29T06:15:08;16.55;;;9.38;;
35128;SDS011;21301;43.626;10.580;2023-05-29T06:17:34;15.27;;;9.75;;
35128;SDS011;21301;43.626;10.580;2023-05-29T06:20:01;12.60;;;9.02;;
35128;SDS011;21301;43.626;10.580;2023-05-29T06:22:30;20.50;;;14.73;;
35128;SDS011;21301;43.626;10.580;2023-05-29T06:24:56;14.57;;;8.80;;
35128;SDS011;21301;43.626;10.580;2023-05-29T06:27:22;13.80;;;8.05;;
35128;SDS011;21301;43.626;10.580;2023-05-29T06:29:51;15.70;;;8.70;;
35128;SDS011;21301;43.626;10.580;2023-05-29T06:32:17;19.83;;;10.82;;
35128;SDS011;21301;43.626;10.580;2023-05-29T06:34:43;18.10;;;10.57;;
35128;SDS011;21301;43.626;10.580;2023-05-29T06:37:08;16.67;;;10.38;;
35128;SDS011;21301;43.626;10.580;2023-05-29T06:39:35;18.17;;;10.27;;
35128;SDS011;21301;43.626;10.580;2023-05-29T06:42:00;17.05;;;11.27;;
35128;SDS011;21301;43.626;10.580;2023-05-29T06:44:27;18.13;;;11.88;;
35128;SDS011;21301;43.626;10.580;2023-05-29T06:46:53;16.98;;;11.55;;
35128;SDS011;21301;43.626;10.580;2023-05-29T06:49:19;18.73;;;9.63;;
35128;SDS011;21301;43.626;10.580;2023-05-29T06:51:45;21.77;;;11.00;;
35128;SDS011;21301;43.626;10.580;2023-05-29T06:54:23;12.98;;;9.10;;
35128;SDS011;21301;43.626;10.580;2023-05-29T06:56:49;15.65;;;9.43;;
35128;SDS011;21301;43.626;10.580;2023-05-29T06:59:14;16.05;;;8.57;;
35128;SDS011;21301;43.626;10.580;2023-05-29T07:01:40;11.10;;;7.43;;
35128;SDS011;21301;43.626;10.580;2023-05-29T07:04:07;10.57;;;7.18;;
35128;SDS011;21301;43.626;10.580;2023-05-29T07:06:33;13.32;;;8.30;;
35128;SDS011;21301;43.626;10.580;2023-05-29T07:08:59;11.10;;;6.70;;
35128;SDS011;21301;43.626;10.580;2023-05-29T07:11:25;11.80;;;7.22;;
35128;SDS011;21301;43.626;10.580;2023-05-29T07:13:53;14.20;;;9.00;;
35128;SDS011;21301;43.626;10.580;2023-05-29T07:16:19;12.77;;;7.80;;
35128;SDS011;21301;43.626;10.580;2023-05-29T07:18:45;11.63;;;7.95;;
35128;SDS011;21301;43.626;10.580;2023-05-29T07:21:11;15.63;;;8.23;;
35128;SDS011;21301;43.626;10.580;2023-05-29T07:23:37;11.02;;;7.40;;
35128;SDS011;21301;43.626;10.580;2023-05-29T07:26:04;11.85;;;7.93;;
35128;SDS011;21301;43.626;10.580;2023-05-29T07:28:30;11.88;;;8.55;;
35128;SDS011;21301;43.626;10.580;2023-05-29T07:30:56;15.35;;;7.88;;
35128;SDS011;21301;43.626;10.580;2023-05-29T07:33:22;11.77;;;7.57;;
35128;SDS011;21301;43.626;10.580;2023-05-29T07:35:48;12.52;;;7.10;;
35128;SDS011;21301;43.626;10.580;2023-05-29T07:38:15;13.98;;;6.97;;
35128;SDS011;21301;43.626;10.580;2023-05-29T07:40:41;11.02;;;6.97;;
35128;SDS011;21301;43.626;10.580;2023-05-29T07:43:30;10.70;;;7.15;;
35128;SDS011;21301;43.626;10.580;2023-05-29T07:46:02;11.17;;;7.10;;
35128;SDS011;21301;43.626;10.580;2023-05-29T07:48:29;11.55;;;6.97;;
35128;SDS011;21301;43.626;10.580;2023-05-29T07:50:56;13.88;;;7.32;;
35128;SDS011;21301;43.626;10.580;2023-05-29T07:53:24;10.23;;;6.10;;
35128;SDS011;21301;43.626;10.580;2023-05-29T07:55:50;11.80;;;7.35;;
35128;SDS011;21301;43.626;10.580;2023-05-29T07:58:16;11.98;;;7.22;;
35128;SDS011;21301;43.626;10.580;2023-05-29T08:00:43;8.80;;;5.95;;
35128;SDS011;21301;43.626;10.580;2023-05-29T08:03:09;10.23;;;6.47;;
35128;SDS011;21301;43.626;10.580;2023-05-29T08:05:53;15.02;;;6.32;;
35128;SDS011;21301;43.626;10.580;2023-05-29T08:08:20;11.02;;;6.78;;
35128;SDS011;21301;43.626;10.580;2023-05-29T08:10:46;8.50;;;5.90;;
35128;SDS011;21301;43.626;10.580;2023-05-29T08:13:12;11.55;;;5.95;;
35128;SDS011;21301;43.626;10.580;2023-05-29T08:15:39;9.98;;;6.88;;
35128;SDS011;21301;43.626;10.580;2023-05-29T08:18:04;10.65;;;6.00;;
35128;SDS011;21301;43.626;10.580;2023-05-29T08:20:30;12.07;;;6.28;;
35128;SDS011;21301;43.626;10.580;2023-05-29T08:22:56;10.40;;;6.03;;
35128;SDS011;21301;43.626;10.580;2023-05-29T08:25:22;11.90;;;6.18;;
35128;SDS011;21301;43.626;10.580;2023-05-29T08:27:47;11.10;;;5.50;;
35128;SDS011;21301;43.626;10.580;2023-05-29T08:30:13;10.00;;;5.60;;
35128;SDS011;21301;43.626;10.580;2023-05-29T08:32:39;12.65;;;7.03;;
35128;SDS011;21301;43.626;10.580;2023-05-29T08:35:05;11.73;;;6.63;;
35128;SDS011;21301;43.626;10.580;2023-05-29T08:37:30;12.52;;;6.78;;
35128;SDS011;21301;43.626;10.580;2023-05-29T08:39:56;9.18;;;5.22;;
35128;SDS011;21301;43.626;10.580;2023-05-29T08:42:26;14.10;;;6.55;;
35128;SDS011;21301;43.626;10.580;2023-05-29T08:44:58;9.52;;;6.10;;
35128;SDS011;21301;43.626;10.580;2023-05-29T08:47:28;8.77;;;5.10;;
35128;SDS011;21301;43.626;10.580;2023-05-29T08:52:28;12.77;;;7.20;;
35128;SDS011;21301;43.626;10.580;2023-05-29T08:54:57;11.38;;;6.05;;
35128;SDS011;21301;43.626;10.580;2023-05-29T08:57:26;9.20;;;5.82;;
35128;SDS011;21301;43.626;10.580;2023-05-29T08:59:53;9.77;;;5.90;;
35128;SDS011;21301;43.626;10.580;2023-05-29T09:02:21;11.90;;;5.82;;
35128;SDS011;21301;43.626;10.580;2023-05-29T09:04:47;7.32;;;5.18;;
35128;SDS011;21301;43.626;10.580;2023-05-29T09:07:16;10.73;;;6.03;;
35128;SDS011;21301;43.626;10.580;2023-05-29T09:09:44;8.55;;;5.03;;
35128;SDS011;21301;43.626;10.580;2023-05-29T09:12:13;8.25;;;5.28;;
35128;SDS011;21301;43.626;10.580;2023-05-29T09:14:42;8.27;;;5.45;;
35128;SDS011;21301;43.626;10.580;2023-05-29T09:17:10;8.10;;;5.72;;
35128;SDS011;21301;43.626;10.580;2023-05-29T09:19:37;9.48;;;5.97;;
35128;SDS011;21301;43.626;10.580;2023-05-29T09:24:35;9.63;;;5.55;;
35128;SDS011;21301;43.626;10.580;2023-05-29T09:27:03;9.40;;;5.05;;
35128;SDS011;21301;43.626;10.580;2023-05-29T09:29:48;9.50;;;5.65;;
35128;SDS011;21301;43.626;10.580;2023-05-29T09:32:14;9.25;;;5.63;;
35128;SDS011;21301;43.626;10.580;2023-05-29T09:34:42;12.07;;;4.82;;
35128;SDS011;21301;43.626;10.580;2023-05-29T09:37:09;7.35;;;4.80;;
35128;SDS011;21301;43.626;10.580;2023-05-29T09:39:46;8.10;;;5.28;;
35128;SDS011;21301;43.626;10.580;2023-05-29T09:42:13;7.38;;;4.88;;
35128;SDS011;21301;43.626;10.580;2023-05-29T09:44:43;11.52;;;5.68;;
35128;SDS011;21301;43.626;10.580;2023-05-29T09:47:18;11.15;;;5.78;;
35128;SDS011;21301;43.626;10.580;2023-05-29T09:52:11;8.48;;;5.30;;
35128;SDS011;21301;43.626;10.580;2023-05-29T09:54:39;9.57;;;4.88;;
35128;SDS011;21301;43.626;10.580;2023-05-29T09:57:10;8.10;;;5.22;;
35128;SDS011;21301;43.626;10.580;2023-05-29T09:59:42;6.47;;;4.68;;
35128;SDS011;21301;43.626;10.580;2023-05-29T10:02:10;9.75;;;5.78;;
35128;SDS011;21301;43.626;10.580;2023-05-29T10:04:38;8.70;;;4.75;;
35128;SDS011;21301;43.626;10.580;2023-05-29T10:09:51;8.45;;;5.03;;
35128;SDS011;21301;43.626;10.580;2023-05-29T10:12:20;7.03;;;4.68;;
35128;SDS011;21301;43.626;10.580;2023-05-29T10:14:48;8.30;;;5.13;;
35128;SDS011;21301;43.626;10.580;2023-05-29T10:17:15;13.05;;;6.43;;
35128;SDS011;21301;43.626;10.580;2023-05-29T10:19:43;7.55;;;4.95;;
35128;SDS011;21301;43.626;10.580;2023-05-29T10:22:12;9.70;;;5.05;;
35128;SDS011;21301;43.626;10.580;2023-05-29T10:24:40;10.93;;;5.63;;
35128;SDS011;21301;43.626;10.580;2023-05-29T10:27:06;7.63;;;4.68;;
35128;SDS011;21301;43.626;10.580;2023-05-29T10:29:39;7.97;;;4.28;;
35128;SDS011;21301;43.626;10.580;2023-05-29T10:35:06;8.07;;;5.22;;
35128;SDS011;21301;43.626;10.580;2023-05-29T10:37:46;8.23;;;4.63;;
35128;SDS011;21301;43.626;10.580;2023-05-29T10:40:22;9.07;;;5.47;;
35128;SDS011;21301;43.626;10.580;2023-05-29T10:42:49;8.10;;;4.78;;
35128;SDS011;21301;43.626;10.580;2023-05-29T10:50:37;7.90;;;4.53;;
35128;SDS011;21301;43.626;10.580;2023-05-29T10:53:16;7.90;;;4.65;;
35128;SDS011;21301;43.626;10.580;2023-05-29T10:55:44;8.15;;;4.93;;
35128;SDS011;21301;43.626;10.580;2023-05-29T10:58:23;9.13;;;5.30;;
35128;SDS011;21301;43.626;10.580;2023-05-29T11:00:51;6.72;;;4.05;;
35128;SDS011;21301;43.626;10.580;2023-05-29T11:03:22;6.32;;;4.50;;
35128;SDS011;21301;43.626;10.580;2023-05-29T11:08:33;7.80;;;4.93;;
35128;SDS011;21301;43.626;10.580;2023-05-29T11:11:00;11.07;;;5.00;;
35128;SDS011;21301;43.626;10.580;2023-05-29T11:13:33;7.18;;;4.10;;
35128;SDS011;21301;43.626;10.580;2023-05-29T11:18:42;8.40;;;4.25;;
35128;SDS011;21301;43.626;10.580;2023-05-29T11:21:27;8.60;;;4.80;;
35128;SDS011;21301;43.626;10.580;2023-05-29T11:24:24;7.78;;;3.95;;
35128;SDS011;21301;43.626;10.580;2023-05-29T11:26:53;6.68;;;4.07;;
35128;SDS011;21301;43.626;10.580;2023-05-29T11:29:21;8.88;;;4.55;;
35128;SDS011;21301;43.626;10.580;2023-05-29T11:31:48;6.63;;;4.53;;
35128;SDS011;21301;43.626;10.580;2023-05-29T11:34:21;7.57;;;4.03;;
35128;SDS011;21301;43.626;10.580;2023-05-29T11:36:48;7.50;;;4.60;;
35128;SDS011;21301;43.626;10.580;2023-05-29T11:39:16;7.65;;;3.97;;
35128;SDS011;21301;43.626;10.580;2023-05-29T11:41:42;8.05;;;4.20;;
35128;SDS011;21301;43.626;10.580;2023-05-29T11:44:08;9.00;;;4.13;;
35128;SDS011;21301;43.626;10.580;2023-05-29T11:46:34;6.68;;;3.90;;
35128;SDS011;21301;43.626;10.580;2023-05-29T11:49:00;9.27;;;4.60;;
35128;SDS011;21301;43.626;10.580;2023-05-29T11:51:26;8.68;;;4.43;;
35128;SDS011;21301;43.626;10.580;2023-05-29T11:53:52;6.25;;;3.75;;
35128;SDS011;21301;43.626;10.580;2023-05-29T11:56:23;6.20;;;3.65;;
35128;SDS011;21301;43.626;10.580;2023-05-29T11:58:50;7.55;;;4.15;;
35128;SDS011;21301;43.626;10.580;2023-05-29T12:01:20;9.95;;;4.85;;
35128;SDS011;21301;43.626;10.580;2023-05-29T12:03:46;9.77;;;4.60;;
35128;SDS011;21301;43.626;10.580;2023-05-29T12:06:12;6.65;;;4.47;;
35128;SDS011;21301;43.626;10.580;2023-05-29T12:08:38;10.15;;;4.13;;
35128;SDS011;21301;43.626;10.580;2023-05-29T12:11:04;8.98;;;4.38;;
35128;SDS011;21301;43.626;10.580;2023-05-29T12:13:30;6.72;;;4.05;;
35128;SDS011;21301;43.626;10.580;2023-05-29T12:15:57;7.20;;;4.55;;
35128;SDS011;21301;43.626;10.580;2023-05-29T12:18:26;9.18;;;4.10;;
35128;SDS011;21301;43.626;10.580;2023-05-29T12:21:02;7.93;;;4.00;;
35128;SDS011;21301;43.626;10.580;2023-05-29T12:23:29;9.25;;;4.90;;
35128;SDS011;21301;43.626;10.580;2023-05-29T12:25:55;7.55;;;4.38;;
35128;SDS011;21301;43.626;10.580;2023-05-29T12:28:23;8.23;;;4.50;;
35128;SDS011;21301;43.626;10.580;2023-05-29T12:30:49;7.47;;;4.47;;
35128;SDS011;21301;43.626;10.580;2023-05-29T12:33:28;7.32;;;4.80;;
35128;SDS011;21301;43.626;10.580;2023-05-29T12:36:04;7.65;;;4.45;;
35128;SDS011;21301;43.626;10.580;2023-05-29T12:38:32;7.15;;;4.30;;
35128;SDS011;21301;43.626;10.580;2023-05-29T12:40:58;6.75;;;4.10;;
35128;SDS011;21301;43.626;10.580;2023-05-29T12:43:24;8.07;;;4.63;;
35128;SDS011;21301;43.626;10.580;2023-05-29T12:45:56;7.53;;;5.10;;
35128;SDS011;21301;43.626;10.580;2023-05-29T12:48:26;9.35;;;5.25;;
35128;SDS011;21301;43.626;10.580;2023-05-29T12:50:52;9.77;;;4.90;;
35128;SDS011;21301;43.626;10.580;2023-05-29T12:53:18;8.25;;;4.90;;
35128;SDS011;21301;43.626;10.580;2023-05-29T12:55:46;7.47;;;4.72;;
35128;SDS011;21301;43.626;10.580;2023-05-29T12:58:13;10.98;;;5.30;;
35128;SDS011;21301;43.626;10.580;2023-05-29T13:00:45;7.18;;;4.43;;
35128;SDS011;21301;43.626;10.580;2023-05-29T13:03:11;7.60;;;4.00;;
35128;SDS011;21301;43.626;10.580;2023-05-29T13:05:37;10.77;;;5.57;;
35128;SDS011;21301;43.626;10.580;2023-05-29T13:08:04;6.70;;;4.53;;
35128;SDS011;21301;43.626;10.580;2023-05-29T13:10:32;9.00;;;5.10;;
35128;SDS011;21301;43.626;10.580;2023-05-29T13:12:59;9.07;;;5.05;;
35128;SDS011;21301;43.626;10.580;2023-05-29T13:15:26;9.05;;;5.20;;
35128;SDS011;21301;43.626;10.580;2023-05-29T13:17:52;8.52;;;6.15;;
35128;SDS011;21301;43.626;10.580;2023-05-29T13:20:18;11.25;;;6.70;;
35128;SDS011;21301;43.626;10.580;2023-05-29T13:22:45;10.70;;;7.07;;
35128;SDS011;21301;43.626;10.580;2023-05-29T13:25:13;9.65;;;5.97;;
35128;SDS011;21301;43.626;10.580;2023-05-29T13:27:41;9.35;;;5.82;;
35128;SDS011;21301;43.626;10.580;2023-05-29T13:30:09;12.35;;;6.90;;
35128;SDS011;21301;43.626;10.580;2023-05-29T13:32:35;10.05;;;6.60;;
35128;SDS011;21301;43.626;10.580;2023-05-29T13:35:02;12.25;;;6.82;;
35128;SDS011;21301;43.626;10.580;2023-05-29T13:37:28;9.77;;;6.28;;
35128;SDS011;21301;43.626;10.580;2023-05-29T13:39:54;8.57;;;5.13;;
35128;SDS011;21301;43.626;10.580;2023-05-29T13:42:20;12.77;;;7.63;;
35128;SDS011;21301;43.626;10.580;2023-05-29T13:44:47;10.85;;;6.22;;
35128;SDS011;21301;43.626;10.580;2023-05-29T13:47:13;8.45;;;4.28;;
35128;SDS011;21301;43.626;10.580;2023-05-29T13:49:39;9.10;;;5.00;;
35128;SDS011;21301;43.626;10.580;2023-05-29T13:52:06;7.68;;;5.30;;
35128;SDS011;21301;43.626;10.580;2023-05-29T13:54:31;7.82;;;4.93;;
35128;SDS011;21301;43.626;10.580;2023-05-29T13:57:01;10.80;;;5.72;;
35128;SDS011;21301;43.626;10.580;2023-05-29T13:59:28;10.70;;;6.03;;
35128;SDS011;21301;43.626;10.580;2023-05-29T14:01:55;10.75;;;5.95;;
35128;SDS011;21301;43.626;10.580;2023-05-29T14:04:21;13.02;;;6.32;;
35128;SDS011;21301;43.626;10.580;2023-05-29T14:06:47;12.68;;;5.70;;
35128;SDS011;21301;43.626;10.580;2023-05-29T14:09:12;11.10;;;6.30;;
35128;SDS011;21301;43.626;10.580;2023-05-29T14:11:39;10.30;;;6.40;;
35128;SDS011;21301;43.626;10.580;2023-05-29T14:14:05;8.23;;;5.30;;
35128;SDS011;21301;43.626;10.580;2023-05-29T14:16:32;9.50;;;5.95;;
35128;SDS011;21301;43.626;10.580;2023-05-29T14:18:58;10.30;;;5.78;;
35128;SDS011;21301;43.626;10.580;2023-05-29T14:21:24;8.10;;;5.40;;
35128;SDS011;21301;43.626;10.580;2023-05-29T14:23:50;10.13;;;6.03;;
35128;SDS011;21301;43.626;10.580;2023-05-29T14:26:16;12.52;;;5.93;;
35128;SDS011;21301;43.626;10.580;2023-05-29T14:28:43;9.43;;;5.50;;
35128;SDS011;21301;43.626;10.580;2023-05-29T14:31:09;7.63;;;5.25;;
35128;SDS011;21301;43.626;10.580;2023-05-29T14:33:35;9.95;;;5.22;;
35128;SDS011;21301;43.626;10.580;2023-05-29T14:36:02;8.82;;;5.50;;
35128;SDS011;21301;43.626;10.580;2023-05-29T14:38:28;10.18;;;5.25;;
35128;SDS011;21301;43.626;10.580;2023-05-29T14:40:54;7.43;;;4.65;;
35128;SDS011;21301;43.626;10.580;2023-05-29T14:43:19;7.38;;;5.00;;
35128;SDS011;21301;43.626;10.580;2023-05-29T14:45:45;8.32;;;5.50;;
35128;SDS011;21301;43.626;10.580;2023-05-29T14:48:11;8.45;;;4.82;;
35128;SDS011;21301;43.626;10.580;2023-05-29T14:50:37;9.95;;;5.10;;
35128;SDS011;21301;43.626;10.580;2023-05-29T14:53:03;8.20;;;4.95;;
35128;SDS011;21301;43.626;10.580;2023-05-29T14:55:29;7.65;;;4.70;;
35128;SDS011;21301;43.626;10.580;2023-05-29T14:58:02;9.63;;;5.78;;
35128;SDS011;21301;43.626;10.580;2023-05-29T15:00:31;9.02;;;5.40;;